Honolulu International Airport

Airport
ICAO code: 
PHNL
IATA Code: 
HNL
Summary
ICAO Region: 
NAM
Territory: 
Location: 
Honolulu, Hawaii
Serving: 
Honolulu
Elevation: 
13 ft
Coordinates: 
Aerial View: 
21° 19' 20.538" N, 157° 55' 22.808" W
Airport BS: 
Bird Strike
Airport LOS: 
Parallel Runway Operation
Metar
Observation
PHNL 041153Z 00000KT 10SM FEW025 16/12 A2975 RMK AO2 SLP075 70016 T01560122 10194 20150 58013
Station
Honolulu, Honolulu International Airport
Date/Time
2021-12-04 11:53:00
Wind direction
Wind speed
00 kts
Lowest cloud amount
few clouds
Temperature
15.6°C
Dew point
12.2°C
Humidity
80%
Weather condition
n/a

Description

Honolulu International Airport is the principal aviation gateway of the City & County of Honolulu and the State of Hawaii.

Climatology

Tropical Savanna climate (Köppen climate classification As) - monthly mean temperature above 18°C in every month of the year and a pronounced dry season.

Runways

Designator Length Width Surface Rops
04W/22W 914 46 WATER No/No
08W/26W 1524 91 WATER No/No
04L/22R 2119 46 ASPH-G Yes/Yes
04R/22L 2743 46 ASPH-G Yes/Yes
08R/26L 3658 61 ASPH-G Yes/Yes
08L/26R 3749 46 ASPH-G Yes/Yes
Airport map: 
Aerial View: 

SKYbrary Partners:

Safety knowledge contributed by: